sensor_id;sensor_type;location;lat;lon;timestamp;pressure;altitude;pressure_sealevel;temperature;humidity
35489;BME280;21602;55.670;37.578;2022-08-03T00:01:41;99285.13;;;22.37;57.88
35489;BME280;21602;55.670;37.578;2022-08-03T00:04:08;99280.31;;;22.34;57.87
35489;BME280;21602;55.670;37.578;2022-08-03T00:06:34;99285.28;;;22.32;58.00
35489;BME280;21602;55.670;37.578;2022-08-03T00:09:00;99276.94;;;22.29;58.36
35489;BME280;21602;55.670;37.578;2022-08-03T00:11:26;99283.97;;;22.30;58.48
35489;BME280;21602;55.670;37.578;2022-08-03T00:13:52;99283.34;;;22.33;58.90
35489;BME280;21602;55.670;37.578;2022-08-03T00:16:18;99283.97;;;22.30;58.41
35489;BME280;21602;55.670;37.578;2022-08-03T00:18:44;99288.41;;;22.26;58.14
35489;BME280;21602;55.670;37.578;2022-08-03T00:21:10;99280.72;;;22.19;58.52
35489;BME280;21602;55.670;37.578;2022-08-03T00:23:36;99280.22;;;22.17;58.62
35489;BME280;21602;55.670;37.578;2022-08-03T00:26:02;99282.44;;;22.15;58.85
35489;BME280;21602;55.670;37.578;2022-08-03T00:28:28;99273.91;;;22.08;58.77
35489;BME280;21602;55.670;37.578;2022-08-03T00:30:54;99274.66;;;21.99;58.58
35489;BME280;21602;55.670;37.578;2022-08-03T00:33:20;99279.72;;;21.92;58.68
35489;BME280;21602;55.670;37.578;2022-08-03T00:35:46;99279.84;;;21.87;59.28
35489;BME280;21602;55.670;37.578;2022-08-03T00:38:12;99276.16;;;21.83;59.16
35489;BME280;21602;55.670;37.578;2022-08-03T00:40:38;99282.22;;;21.80;59.43
35489;BME280;21602;55.670;37.578;2022-08-03T00:43:05;99283.63;;;21.78;59.63
35489;BME280;21602;55.670;37.578;2022-08-03T00:45:37;99276.59;;;21.77;59.80
35489;BME280;21602;55.670;37.578;2022-08-03T00:48:05;99273.56;;;21.78;59.57
35489;BME280;21602;55.670;37.578;2022-08-03T00:50:34;99273.13;;;21.85;60.00
35489;BME280;21602;55.670;37.578;2022-08-03T00:53:02;99274.75;;;21.86;59.49
35489;BME280;21602;55.670;37.578;2022-08-03T00:55:29;99276.78;;;21.80;59.52
35489;BME280;21602;55.670;37.578;2022-08-03T00:57:55;99268.63;;;21.80;60.16
35489;BME280;21602;55.670;37.578;2022-08-03T01:00:23;99273.94;;;21.85;60.08
35489;BME280;21602;55.670;37.578;2022-08-03T01:02:49;99266.84;;;21.76;60.04
35489;BME280;21602;55.670;37.578;2022-08-03T01:05:15;99266.38;;;21.60;59.75
35489;BME280;21602;55.670;37.578;2022-08-03T01:16:27;99275.28;;;21.52;60.99
35489;BME280;21602;55.670;37.578;2022-08-03T01:19:34;99267.88;;;21.43;61.31
35489;BME280;21602;55.670;37.578;2022-08-03T01:25:09;99278.16;;;21.19;62.36
35489;BME280;21602;55.670;37.578;2022-08-03T01:27:53;99270.94;;;21.14;62.70
35489;BME280;21602;55.670;37.578;2022-08-03T01:30:29;99269.63;;;21.12;62.92
35489;BME280;21602;55.670;37.578;2022-08-03T01:33:27;99269.13;;;21.10;62.76
35489;BME280;21602;55.670;37.578;2022-08-03T01:38:26;99272.38;;;20.98;63.32
35489;BME280;21602;55.670;37.578;2022-08-03T01:40:55;99267.34;;;20.91;63.56
35489;BME280;21602;55.670;37.578;2022-08-03T01:43:25;99273.91;;;20.90;64.05
35489;BME280;21602;55.670;37.578;2022-08-03T01:45:55;99273.91;;;20.90;63.87
35489;BME280;21602;55.670;37.578;2022-08-03T01:48:23;99275.19;;;20.93;64.18
35489;BME280;21602;55.670;37.578;2022-08-03T01:50:50;99276.19;;;20.97;64.20
35489;BME280;21602;55.670;37.578;2022-08-03T01:53:19;99271.88;;;20.96;64.04
35489;BME280;21602;55.670;37.578;2022-08-03T01:55:48;99277.78;;;20.98;64.19
35489;BME280;21602;55.670;37.578;2022-08-03T01:58:18;99283.31;;;21.07;63.88
35489;BME280;21602;55.670;37.578;2022-08-03T02:00:47;99282.59;;;21.15;63.60
35489;BME280;21602;55.670;37.578;2022-08-03T02:03:14;99280.09;;;21.18;63.61
35489;BME280;21602;55.670;37.578;2022-08-03T02:05:44;99280.25;;;21.22;63.63
35489;BME280;21602;55.670;37.578;2022-08-03T02:08:12;99285.19;;;21.20;63.55
35489;BME280;21602;55.670;37.578;2022-08-03T02:10:40;99288.22;;;21.18;63.49
35489;BME280;21602;55.670;37.578;2022-08-03T02:13:08;99289.81;;;21.19;63.32
35489;BME280;21602;55.670;37.578;2022-08-03T02:15:36;99288.41;;;21.22;63.15
35489;BME280;21602;55.670;37.578;2022-08-03T02:18:04;99286.81;;;21.21;62.63
35489;BME280;21602;55.670;37.578;2022-08-03T02:20:32;99281.78;;;21.28;63.33
35489;BME280;21602;55.670;37.578;2022-08-03T02:23:00;99285.81;;;21.31;62.86
35489;BME280;21602;55.670;37.578;2022-08-03T02:25:27;99284.97;;;21.30;62.71
35489;BME280;21602;55.670;37.578;2022-08-03T02:28:05;99287.69;;;21.30;62.49
35489;BME280;21602;55.670;37.578;2022-08-03T02:30:35;99290.41;;;21.30;62.44
35489;BME280;21602;55.670;37.578;2022-08-03T02:33:03;99295.25;;;21.33;62.67
35489;BME280;21602;55.670;37.578;2022-08-03T02:35:31;99289.09;;;21.41;62.75
35489;BME280;21602;55.670;37.578;2022-08-03T02:38:03;99289.78;;;21.47;62.58
35489;BME280;21602;55.670;37.578;2022-08-03T02:40:30;99280.84;;;21.46;62.50
35489;BME280;21602;55.670;37.578;2022-08-03T02:43:02;99287.38;;;21.45;62.70
35489;BME280;21602;55.670;37.578;2022-08-03T02:45:31;99294.78;;;21.54;62.53
35489;BME280;21602;55.670;37.578;2022-08-03T02:48:02;99292.16;;;21.62;62.63
35489;BME280;21602;55.670;37.578;2022-08-03T02:50:29;99299.44;;;21.76;63.12
35489;BME280;21602;55.670;37.578;2022-08-03T02:52:57;99298.19;;;21.82;62.35
35489;BME280;21602;55.670;37.578;2022-08-03T02:55:25;99294.50;;;21.78;62.31
35489;BME280;21602;55.670;37.578;2022-08-03T02:57:53;99290.38;;;21.80;62.63
35489;BME280;21602;55.670;37.578;2022-08-03T03:00:19;99300.19;;;22.12;66.95
35489;BME280;21602;55.670;37.578;2022-08-03T03:02:46;99293.94;;;22.43;62.72
35489;BME280;21602;55.670;37.578;2022-08-03T03:05:13;99294.97;;;22.56;61.75
35489;BME280;21602;55.670;37.578;2022-08-03T03:07:41;99301.00;;;22.44;61.38
35489;BME280;21602;55.670;37.578;2022-08-03T03:10:08;99302.06;;;22.34;61.75
35489;BME280;21602;55.670;37.578;2022-08-03T03:12:36;99298.50;;;22.25;61.92
35489;BME280;21602;55.670;37.578;2022-08-03T03:15:04;99308.16;;;22.09;62.26
35489;BME280;21602;55.670;37.578;2022-08-03T03:17:32;99309.88;;;22.05;62.07
35489;BME280;21602;55.670;37.578;2022-08-03T03:19:58;99301.97;;;21.94;62.54
35489;BME280;21602;55.670;37.578;2022-08-03T03:22:26;99301.66;;;21.96;62.88
35489;BME280;21602;55.670;37.578;2022-08-03T03:24:52;99299.59;;;22.02;62.04
35489;BME280;21602;55.670;37.578;2022-08-03T03:27:19;99309.44;;;22.11;62.68
35489;BME280;21602;55.670;37.578;2022-08-03T03:29:46;99301.41;;;22.29;61.81
35489;BME280;21602;55.670;37.578;2022-08-03T03:32:12;99313.59;;;22.40;62.84
35489;BME280;21602;55.670;37.578;2022-08-03T03:34:38;99311.91;;;22.53;62.11
35489;BME280;21602;55.670;37.578;2022-08-03T03:37:04;99316.94;;;22.68;61.75
35489;BME280;21602;55.670;37.578;2022-08-03T03:39:30;99305.44;;;22.71;60.97
35489;BME280;21602;55.670;37.578;2022-08-03T03:41:57;99306.06;;;22.68;60.47
35489;BME280;21602;55.670;37.578;2022-08-03T03:44:27;99307.78;;;22.64;60.78
35489;BME280;21602;55.670;37.578;2022-08-03T03:46:55;99312.13;;;22.65;60.90
35489;BME280;21602;55.670;37.578;2022-08-03T03:49:21;99315.34;;;22.67;60.15
35489;BME280;21602;55.670;37.578;2022-08-03T03:51:47;99319.97;;;22.66;61.06
35489;BME280;21602;55.670;37.578;2022-08-03T03:54:13;99319.03;;;22.71;60.45
35489;BME280;21602;55.670;37.578;2022-08-03T03:56:38;99321.75;;;22.71;60.48
35489;BME280;21602;55.670;37.578;2022-08-03T03:59:05;99318.91;;;22.76;60.61
35489;BME280;21602;55.670;37.578;2022-08-03T04:01:31;99320.53;;;22.86;60.97
35489;BME280;21602;55.670;37.578;2022-08-03T04:03:57;99323.31;;;22.94;60.68
35489;BME280;21602;55.670;37.578;2022-08-03T04:06:42;99316.41;;;22.97;60.13
35489;BME280;21602;55.670;37.578;2022-08-03T04:09:26;99314.03;;;22.95;60.38
35489;BME280;21602;55.670;37.578;2022-08-03T04:12:11;99319.81;;;23.03;60.17
35489;BME280;21602;55.670;37.578;2022-08-03T04:14:38;99329.47;;;23.17;60.31
35489;BME280;21602;55.670;37.578;2022-08-03T04:17:07;99322.56;;;23.20;59.20
35489;BME280;21602;55.670;37.578;2022-08-03T04:19:44;99327.84;;;23.16;59.56
35489;BME280;21602;55.670;37.578;2022-08-03T04:22:16;99330.25;;;23.18;59.91
35489;BME280;21602;55.670;37.578;2022-08-03T04:24:49;99334.44;;;23.24;59.33
35489;BME280;21602;55.670;37.578;2022-08-03T04:27:18;99326.09;;;23.29;59.65
35489;BME280;21602;55.670;37.578;2022-08-03T04:29:47;99336.22;;;23.37;59.66
35489;BME280;21602;55.670;37.578;2022-08-03T04:32:14;99329.00;;;23.41;59.37
35489;BME280;21602;55.670;37.578;2022-08-03T04:34:41;99324.84;;;23.44;59.20
35489;BME280;21602;55.670;37.578;2022-08-03T04:37:11;99327.75;;;23.56;59.51
35489;BME280;21602;55.670;37.578;2022-08-03T04:39:41;99323.75;;;23.71;59.34
35489;BME280;21602;55.670;37.578;2022-08-03T04:42:10;99333.19;;;23.82;57.74
35489;BME280;21602;55.670;37.578;2022-08-03T04:44:39;99332.06;;;23.92;57.74
35489;BME280;21602;55.670;37.578;2022-08-03T04:47:05;99329.50;;;23.95;57.47
35489;BME280;21602;55.670;37.578;2022-08-03T04:49:31;99326.63;;;24.00;57.43
35489;BME280;21602;55.670;37.578;2022-08-03T04:51:59;99338.66;;;23.99;56.97
35489;BME280;21602;55.670;37.578;2022-08-03T04:54:25;99334.63;;;23.97;57.07
35489;BME280;21602;55.670;37.578;2022-08-03T04:56:51;99331.09;;;24.05;57.03
35489;BME280;21602;55.670;37.578;2022-08-03T04:59:17;99327.72;;;24.17;57.27
35489;BME280;21602;55.670;37.578;2022-08-03T05:01:43;99325.28;;;24.24;57.13
35489;BME280;21602;55.670;37.578;2022-08-03T05:04:09;99328.38;;;24.14;56.72
35489;BME280;21602;55.670;37.578;2022-08-03T05:06:35;99326.78;;;24.13;56.63
35489;BME280;21602;55.670;37.578;2022-08-03T05:09:00;99326.09;;;24.16;56.69
35489;BME280;21602;55.670;37.578;2022-08-03T05:11:26;99329.31;;;24.18;56.75
35489;BME280;21602;55.670;37.578;2022-08-03T05:13:52;99324.66;;;24.27;56.58
35489;BME280;21602;55.670;37.578;2022-08-03T05:16:18;99327.38;;;24.27;56.40
35489;BME280;21602;55.670;37.578;2022-08-03T05:18:43;99332.16;;;24.30;56.26
35489;BME280;21602;55.670;37.578;2022-08-03T05:21:10;99329.25;;;24.35;56.48
35489;BME280;21602;55.670;37.578;2022-08-03T05:23:39;99329.59;;;24.42;56.01
35489;BME280;21602;55.670;37.578;2022-08-03T05:26:05;99329.88;;;24.49;55.88
35489;BME280;21602;55.670;37.578;2022-08-03T05:28:31;99330.84;;;24.53;55.96
35489;BME280;21602;55.670;37.578;2022-08-03T05:30:57;99327.94;;;24.59;55.94
35489;BME280;21602;55.670;37.578;2022-08-03T05:33:23;99327.00;;;24.55;55.40
35489;BME280;21602;55.670;37.578;2022-08-03T05:35:48;99323.75;;;24.61;55.27
35489;BME280;21602;55.670;37.578;2022-08-03T05:38:14;99331.44;;;24.68;55.07
35489;BME280;21602;55.670;37.578;2022-08-03T05:40:40;99339.41;;;24.82;54.36
35489;BME280;21602;55.670;37.578;2022-08-03T05:43:06;99340.31;;;24.94;54.16
35489;BME280;21602;55.670;37.578;2022-08-03T05:45:32;99343.00;;;25.12;53.25
35489;BME280;21602;55.670;37.578;2022-08-03T05:47:57;99346.28;;;25.26;53.64
35489;BME280;21602;55.670;37.578;2022-08-03T05:50:23;99336.75;;;25.32;53.04
35489;BME280;21602;55.670;37.578;2022-08-03T05:52:49;99334.41;;;25.43;53.80
35489;BME280;21602;55.670;37.578;2022-08-03T05:55:15;99343.22;;;25.48;53.38
35489;BME280;21602;55.670;37.578;2022-08-03T05:57:41;99347.22;;;25.51;53.10
35489;BME280;21602;55.670;37.578;2022-08-03T06:00:09;99344.34;;;25.47;53.34
35489;BME280;21602;55.670;37.578;2022-08-03T06:02:38;99341.16;;;25.45;53.60
35489;BME280;21602;55.670;37.578;2022-08-03T06:05:05;99338.03;;;25.56;53.00
35489;BME280;21602;55.670;37.578;2022-08-03T06:07:31;99342.91;;;25.50;53.10
35489;BME280;21602;55.670;37.578;2022-08-03T06:09:57;99335.69;;;25.45;52.91
35489;BME280;21602;55.670;37.578;2022-08-03T06:12:24;99340.97;;;25.50;52.62
35489;BME280;21602;55.670;37.578;2022-08-03T06:14:50;99331.88;;;25.59;52.43
35489;BME280;21602;55.670;37.578;2022-08-03T06:17:16;99338.56;;;25.70;52.39
35489;BME280;21602;55.670;37.578;2022-08-03T06:19:42;99337.88;;;25.73;52.26
35489;BME280;21602;55.670;37.578;2022-08-03T06:22:08;99344.59;;;25.84;51.88
35489;BME280;21602;55.670;37.578;2022-08-03T06:24:34;99338.13;;;25.89;51.60
35489;BME280;21602;55.670;37.578;2022-08-03T06:26:59;99345.31;;;25.93;52.00
35489;BME280;21602;55.670;37.578;2022-08-03T06:29:25;99338.94;;;26.01;51.51
35489;BME280;21602;55.670;37.578;2022-08-03T06:31:51;99350.81;;;26.05;50.73
35489;BME280;21602;55.670;37.578;2022-08-03T06:34:16;99348.06;;;26.05;50.82
35489;BME280;21602;55.670;37.578;2022-08-03T06:36:42;99349.56;;;26.03;50.59
35489;BME280;21602;55.670;37.578;2022-08-03T06:39:08;99354.34;;;26.06;50.71
35489;BME280;21602;55.670;37.578;2022-08-03T06:41:34;99344.88;;;26.03;50.51
35489;BME280;21602;55.670;37.578;2022-08-03T06:44:01;99351.22;;;25.95;50.85
35489;BME280;21602;55.670;37.578;2022-08-03T06:46:27;99356.34;;;25.97;51.06
35489;BME280;21602;55.670;37.578;2022-08-03T06:48:53;99346.13;;;26.06;50.38
35489;BME280;21602;55.670;37.578;2022-08-03T06:51:20;99345.75;;;26.16;49.77
35489;BME280;21602;55.670;37.578;2022-08-03T06:53:45;99347.47;;;26.21;49.51
35489;BME280;21602;55.670;37.578;2022-08-03T06:56:11;99354.19;;;26.23;48.78
35489;BME280;21602;55.670;37.578;2022-08-03T06:58:37;99348.50;;;26.28;48.93
35489;BME280;21602;55.670;37.578;2022-08-03T07:01:03;99348.84;;;26.39;48.90
35489;BME280;21602;55.670;37.578;2022-08-03T07:03:29;99357.53;;;26.41;48.52
35489;BME280;21602;55.670;37.578;2022-08-03T07:05:54;99348.06;;;26.39;48.54
35489;BME280;21602;55.670;37.578;2022-08-03T07:08:20;99347.03;;;26.31;48.59
35489;BME280;21602;55.670;37.578;2022-08-03T07:10:46;99342.22;;;26.28;48.53
35489;BME280;21602;55.670;37.578;2022-08-03T07:13:12;99343.38;;;26.39;48.63
35489;BME280;21602;55.670;37.578;2022-08-03T07:15:38;99348.19;;;26.42;48.20
35489;BME280;21602;55.670;37.578;2022-08-03T07:18:04;99349.38;;;26.53;47.95
35489;BME280;21602;55.670;37.578;2022-08-03T07:20:31;99351.69;;;26.76;47.63
35489;BME280;21602;55.670;37.578;2022-08-03T07:22:58;99362.09;;;26.95;46.89
35489;BME280;21602;55.670;37.578;2022-08-03T07:25:24;99351.50;;;27.18;46.76
35489;BME280;21602;55.670;37.578;2022-08-03T07:27:50;99353.88;;;27.19;45.52
35489;BME280;21602;55.670;37.578;2022-08-03T07:30:16;99357.56;;;27.11;45.25
35489;BME280;21602;55.670;37.578;2022-08-03T07:32:42;99356.06;;;27.14;45.35
35489;BME280;21602;55.670;37.578;2022-08-03T07:35:08;99357.66;;;27.27;45.31
35489;BME280;21602;55.670;37.578;2022-08-03T07:37:35;99361.06;;;27.36;44.94
35489;BME280;21602;55.670;37.578;2022-08-03T07:40:03;99351.88;;;27.56;45.16
35489;BME280;21602;55.670;37.578;2022-08-03T07:42:29;99353.09;;;27.84;44.47
35489;BME280;21602;55.670;37.578;2022-08-03T07:44:55;99353.75;;;27.93;44.23
35489;BME280;21602;55.670;37.578;2022-08-03T07:47:23;99360.22;;;28.00;43.52
35489;BME280;21602;55.670;37.578;2022-08-03T07:49:49;99362.88;;;27.97;43.62
35489;BME280;21602;55.670;37.578;2022-08-03T07:52:15;99363.53;;;27.78;43.75
35489;BME280;21602;55.670;37.578;2022-08-03T07:54:59;99367.63;;;27.72;44.03
35489;BME280;21602;55.670;37.578;2022-08-03T07:57:25;99372.06;;;27.76;43.73
35489;BME280;21602;55.670;37.578;2022-08-03T07:59:51;99364.06;;;27.84;43.73
35489;BME280;21602;55.670;37.578;2022-08-03T08:02:16;99364.63;;;27.89;43.22
35489;BME280;21602;55.670;37.578;2022-08-03T08:04:42;99363.28;;;27.71;43.35
35489;BME280;21602;55.670;37.578;2022-08-03T08:07:08;99372.06;;;27.76;43.15
35489;BME280;21602;55.670;37.578;2022-08-03T08:09:34;99372.19;;;27.80;42.97
35489;BME280;21602;55.670;37.578;2022-08-03T08:12:00;99367.38;;;27.77;43.11
35489;BME280;21602;55.670;37.578;2022-08-03T08:14:25;99373.44;;;27.70;42.38
35489;BME280;21602;55.670;37.578;2022-08-03T08:16:51;99377.81;;;27.59;43.17
35489;BME280;21602;55.670;37.578;2022-08-03T08:19:17;99369.63;;;27.47;44.10
35489;BME280;21602;55.670;37.578;2022-08-03T08:21:43;99377.84;;;27.35;44.77
35489;BME280;21602;55.670;37.578;2022-08-03T08:24:09;99379.22;;;27.41;44.26
35489;BME280;21602;55.670;37.578;2022-08-03T08:26:35;99377.47;;;27.48;44.29
35489;BME280;21602;55.670;37.578;2022-08-03T08:29:02;99371.78;;;27.41;44.69
35489;BME280;21602;55.670;37.578;2022-08-03T08:31:28;99360.91;;;27.57;44.12
35489;BME280;21602;55.670;37.578;2022-08-03T08:33:54;99369.69;;;27.75;44.68
35489;BME280;21602;55.670;37.578;2022-08-03T08:36:20;99367.63;;;27.72;44.01
35489;BME280;21602;55.670;37.578;2022-08-03T08:38:45;99362.22;;;27.88;43.94
35489;BME280;21602;55.670;37.578;2022-08-03T08:41:12;99366.31;;;27.94;43.89
35489;BME280;21602;55.670;37.578;2022-08-03T08:43:39;99368.91;;;28.02;43.88
35489;BME280;21602;55.670;37.578;2022-08-03T08:46:06;99373.28;;;28.19;43.20
35489;BME280;21602;55.670;37.578;2022-08-03T08:48:36;99368.03;;;28.42;43.07
35489;BME280;21602;55.670;37.578;2022-08-03T08:51:05;99372.78;;;28.73;42.49
35489;BME280;21602;55.670;37.578;2022-08-03T08:53:35;99368.53;;;29.07;41.80
35489;BME280;21602;55.670;37.578;2022-08-03T08:56:01;99368.31;;;29.32;41.73
35489;BME280;21602;55.670;37.578;2022-08-03T08:58:33;99371.94;;;29.36;40.97
35489;BME280;21602;55.670;37.578;2022-08-03T09:01:01;99376.03;;;29.26;40.89
35489;BME280;21602;55.670;37.578;2022-08-03T09:03:27;99377.72;;;29.31;41.00
35489;BME280;21602;55.670;37.578;2022-08-03T09:05:53;99374.69;;;29.36;40.40
35489;BME280;21602;55.670;37.578;2022-08-03T09:08:19;99372.22;;;29.31;40.75
35489;BME280;21602;55.670;37.578;2022-08-03T09:10:45;99380.09;;;29.32;41.06
35489;BME280;21602;55.670;37.578;2022-08-03T09:13:10;99371.06;;;29.32;41.58
35489;BME280;21602;55.670;37.578;2022-08-03T09:15:36;99373.47;;;29.18;41.11
35489;BME280;21602;55.670;37.578;2022-08-03T09:18:03;99374.13;;;29.11;41.49
35489;BME280;21602;55.670;37.578;2022-08-03T09:20:32;99369.50;;;28.99;42.02
35489;BME280;21602;55.670;37.578;2022-08-03T09:23:00;99375.47;;;29.01;41.64
35489;BME280;21602;55.670;37.578;2022-08-03T09:27:53;99383.25;;;28.99;41.72
35489;BME280;21602;55.670;37.578;2022-08-03T09:30:19;99383.16;;;28.96;41.68
35489;BME280;21602;55.670;37.578;2022-08-03T09:32:45;99377.19;;;28.94;41.77
35489;BME280;21602;55.670;37.578;2022-08-03T09:35:12;99381.91;;;28.77;42.08
35489;BME280;21602;55.670;37.578;2022-08-03T09:37:39;99370.28;;;28.84;41.74
35489;BME280;21602;55.670;37.578;2022-08-03T09:40:06;99385.53;;;28.81;41.71
35489;BME280;21602;55.670;37.578;2022-08-03T09:42:32;99387.41;;;28.77;41.64
35489;BME280;21602;55.670;37.578;2022-08-03T09:45:03;99377.81;;;28.71;41.76
35489;BME280;21602;55.670;37.578;2022-08-03T09:47:33;99378.81;;;28.79;41.24
35489;BME280;21602;55.670;37.578;2022-08-03T09:50:03;99380.22;;;28.89;41.58
35489;BME280;21602;55.670;37.578;2022-08-03T09:52:35;99376.88;;;29.11;41.28
35489;BME280;21602;55.670;37.578;2022-08-03T09:55:07;99376.06;;;29.11;41.09
35489;BME280;21602;55.670;37.578;2022-08-03T09:57:33;99374.38;;;28.90;40.89
35489;BME280;21602;55.670;37.578;2022-08-03T10:00:08;99368.06;;;28.90;40.51
35489;BME280;21602;55.670;37.578;2022-08-03T10:02:41;99369.88;;;28.82;40.80
35489;BME280;21602;55.670;37.578;2022-08-03T10:05:09;99373.13;;;28.72;41.12
35489;BME280;21602;55.670;37.578;2022-08-03T10:07:46;99372.84;;;28.77;41.05
35489;BME280;21602;55.670;37.578;2022-08-03T10:10:13;99373.03;;;28.84;41.22
35489;BME280;21602;55.670;37.578;2022-08-03T10:12:40;99371.25;;;28.76;41.79
35489;BME280;21602;55.670;37.578;2022-08-03T10:15:07;99377.91;;;28.75;41.45
35489;BME280;21602;55.670;37.578;2022-08-03T10:17:33;99376.50;;;28.81;41.29
35489;BME280;21602;55.670;37.578;2022-08-03T10:19:59;99387.84;;;28.95;41.26
35489;BME280;21602;55.670;37.578;2022-08-03T10:22:27;99384.13;;;29.03;40.96
35489;BME280;21602;55.670;37.578;2022-08-03T10:25:11;99378.81;;;29.11;40.38
35489;BME280;21602;55.670;37.578;2022-08-03T10:27:39;99377.41;;;29.17;40.23
35489;BME280;21602;55.670;37.578;2022-08-03T10:30:08;99380.28;;;29.24;40.54
35489;BME280;21602;55.670;37.578;2022-08-03T10:35:25;99380.50;;;29.50;40.11
35489;BME280;21602;55.670;37.578;2022-08-03T10:37:58;99376.31;;;29.72;39.63
35489;BME280;21602;55.670;37.578;2022-08-03T10:40:32;99380.97;;;29.72;39.65
35489;BME280;21602;55.670;37.578;2022-08-03T10:43:02;99383.91;;;29.79;39.13
35489;BME280;21602;55.670;37.578;2022-08-03T10:45:32;99381.88;;;29.76;39.51
35489;BME280;21602;55.670;37.578;2022-08-03T10:48:00;99385.19;;;29.85;38.96
35489;BME280;21602;55.670;37.578;2022-08-03T10:50:26;99388.53;;;29.94;38.87
35489;BME280;21602;55.670;37.578;2022-08-03T10:53:01;99383.91;;;29.98;38.44
35489;BME280;21602;55.670;37.578;2022-08-03T10:55:38;99382.59;;;30.12;38.57
35489;BME280;21602;55.670;37.578;2022-08-03T11:01:04;99392.25;;;30.02;38.87
35489;BME280;21602;55.670;37.578;2022-08-03T11:03:30;99390.63;;;29.81;38.77
35489;BME280;21602;55.670;37.578;2022-08-03T11:06:17;99389.34;;;29.95;38.28
35489;BME280;21602;55.670;37.578;2022-08-03T11:08:45;99390.88;;;29.92;38.67
35489;BME280;21602;55.670;37.578;2022-08-03T11:14:05;99388.22;;;30.15;39.27
35489;BME280;21602;55.670;37.578;2022-08-03T11:16:49;99387.75;;;30.32;39.26
35489;BME280;21602;55.670;37.578;2022-08-03T11:19:18;99390.19;;;30.38;39.23
35489;BME280;21602;55.670;37.578;2022-08-03T11:27:22;99396.53;;;30.19;39.29
35489;BME280;21602;55.670;37.578;2022-08-03T11:29:55;99389.19;;;29.88;39.23
35489;BME280;21602;55.670;37.578;2022-08-03T11:35:11;99388.97;;;29.77;39.67
35489;BME280;21602;55.670;37.578;2022-08-03T11:38:04;99388.69;;;30.01;38.80
35489;BME280;21602;55.670;37.578;2022-08-03T11:43:05;99387.94;;;30.04;38.77
35489;BME280;21602;55.670;37.578;2022-08-03T11:45:32;99380.63;;;30.12;38.85
35489;BME280;21602;55.670;37.578;2022-08-03T11:48:11;99389.56;;;30.05;38.98
35489;BME280;21602;55.670;37.578;2022-08-03T11:50:40;99384.84;;;30.06;38.99
35489;BME280;21602;55.670;37.578;2022-08-03T11:53:14;99382.34;;;30.17;39.12
35489;BME280;21602;55.670;37.578;2022-08-03T11:55:42;99382.34;;;30.17;38.85
35489;BME280;21602;55.670;37.578;2022-08-03T11:58:15;99379.06;;;30.11;38.76
35489;BME280;21602;55.670;37.578;2022-08-03T12:00:41;99379.41;;;30.09;39.07
35489;BME280;21602;55.670;37.578;2022-08-03T12:03:10;99382.91;;;30.06;38.88
35489;BME280;21602;55.670;37.578;2022-08-03T12:05:40;99384.78;;;30.22;38.75
35489;BME280;21602;55.670;37.578;2022-08-03T12:08:08;99385.22;;;30.24;39.15
35489;BME280;21602;55.670;37.578;2022-08-03T12:10:36;99373.91;;;30.29;39.31
35489;BME280;21602;55.670;37.578;2022-08-03T12:13:04;99376.19;;;30.46;39.10
35489;BME280;21602;55.670;37.578;2022-08-03T12:15:36;99374.19;;;30.66;38.65
35489;BME280;21602;55.670;37.578;2022-08-03T12:18:14;99379.31;;;30.87;37.94
35489;BME280;21602;55.670;37.578;2022-08-03T12:20:45;99369.13;;;30.91;38.40
35489;BME280;21602;55.670;37.578;2022-08-03T12:23:11;99373.09;;;30.94;38.66
35489;BME280;21602;55.670;37.578;2022-08-03T12:25:38;99368.28;;;30.87;38.08
35489;BME280;21602;55.670;37.578;2022-08-03T12:30:32;99370.59;;;30.85;38.35
35489;BME280;21602;55.670;37.578;2022-08-03T12:32:58;99369.84;;;30.88;37.94
35489;BME280;21602;55.670;37.578;2022-08-03T12:35:24;99361.19;;;30.86;38.35
35489;BME280;21602;55.670;37.578;2022-08-03T12:37:53;99368.91;;;30.57;38.63
35489;BME280;21602;55.670;37.578;2022-08-03T12:40:25;99370.28;;;30.67;38.67
35489;BME280;21602;55.670;37.578;2022-08-03T12:42:52;99372.97;;;30.64;38.68
35489;BME280;21602;55.670;37.578;2022-08-03T12:47:52;99376.75;;;30.55;38.53
35489;BME280;21602;55.670;37.578;2022-08-03T12:50:31;99384.19;;;30.74;38.87
35489;BME280;21602;55.670;37.578;2022-08-03T12:52:59;99381.19;;;30.83;38.65
35489;BME280;21602;55.670;37.578;2022-08-03T12:55:26;99375.63;;;30.79;38.79
35489;BME280;21602;55.670;37.578;2022-08-03T12:58:06;99381.16;;;30.60;38.70
35489;BME280;21602;55.670;37.578;2022-08-03T13:00:32;99389.84;;;30.62;38.67
35489;BME280;21602;55.670;37.578;2022-08-03T13:03:07;99383.44;;;30.54;38.18
35489;BME280;21602;55.670;37.578;2022-08-03T13:05:43;99383.59;;;30.42;38.41
35489;BME280;21602;55.670;37.578;2022-08-03T13:08:20;99387.81;;;30.36;38.36
35489;BME280;21602;55.670;37.578;2022-08-03T13:10:47;99384.69;;;30.38;38.94
35489;BME280;21602;55.670;37.578;2022-08-03T13:13:13;99386.03;;;30.47;38.44
35489;BME280;21602;55.670;37.578;2022-08-03T13:15:39;99391.63;;;30.51;38.07
35489;BME280;21602;55.670;37.578;2022-08-03T13:18:05;99381.59;;;30.39;38.35
35489;BME280;21602;55.670;37.578;2022-08-03T13:20:30;99382.16;;;30.29;38.41
35489;BME280;21602;55.670;37.578;2022-08-03T13:22:56;99383.63;;;30.23;39.05
35489;BME280;21602;55.670;37.578;2022-08-03T13:25:22;99382.44;;;30.04;38.75
35489;BME280;21602;55.670;37.578;2022-08-03T13:27:48;99382.31;;;29.97;39.03
35489;BME280;21602;55.670;37.578;2022-08-03T13:30:14;99376.06;;;30.00;39.65
35489;BME280;21602;55.670;37.578;2022-08-03T13:32:40;99375.50;;;30.10;39.48
35489;BME280;21602;55.670;37.578;2022-08-03T13:35:08;99380.63;;;30.12;39.55
35489;BME280;21602;55.670;37.578;2022-08-03T13:37:34;99374.16;;;30.20;39.50